Marcel — ONDP — position and weather

sailwx.info

Track history (hours):
 
Tides and Currents Weather Stations Pressure Air Temp Water Temp Dewpoint Dewpoint Depression Visibility Wind Speed Wind Dir Waves Ship Positions

Marcel

Last reported at 2016-Apr-27 03:08 UTC. Time now 2016-Apr-29 19:51 UTC.
Position N 49°57' W 002°56'.

Length 88 m; draft 4.8 m.

Type: Cargo ship. MMSI: 205439000.

Date/timePositionNaut miles runAvg speedWind from/ knotsBaromVisibWave heightAir tempDewpointWater temp
2016-Apr-27 03:08N 49°57' W 002°56'106 8.4
2016-Apr-26 14:33N 50°27' W 000°18'9 9.3
2016-Apr-26 13:34N 50°30' W 000°04'9 8.2
2016-Apr-26 12:31N 50°32' E 000°09'48 8.7
2016-Apr-26 07:04N 50°57' E 001°13'510.4
2016-Apr-26 06:33N 51°01' E 001°20'9 9.4
2016-Apr-26 05:33N 51°07' E 001°31'7 7.5
2016-Apr-26 04:34N 51°11' E 001°40'7 6.6
2016-Apr-26 03:33N 51°16' E 001°48'6 6.3
2016-Apr-26 02:34N 51°21' E 001°54'6 6.0
2016-Apr-26 01:34N 51°25' E 002°02'9 7.2
2016-Apr-26 00:16N 51°21' E 002°16'6 8.0
2016-Apr-25 23:33N 51°22' E 002°25'9 8.7
2016-Apr-25 22:29N 51°23' E 002°39'7 6.9
2016-Apr-25 21:32N 51°22' E 002°50'9 9.2
2016-Apr-25 20:33N 51°25' E 003°04'10 9.5
2016-Apr-25 19:33N 51°24' E 003°19'1111.0
2016-Apr-25 18:34N 51°26' E 003°36'1110.6
2016-Apr-25 17:33N 51°22' E 003°52'7 7.1
2016-Apr-25 16:33N 51°25' E 004°02'7 7.3
2016-Apr-25 15:33N 51°22' E 004°13'3 2.9
2016-Apr-25 14:33N 51°21' E 004°17'1 1.0
2016-Apr-25 13:34N 51°20' E 004°18'6 5.9
2016-Apr-25 12:33N 51°15' E 004°23'0 0.0
2016-Apr-25 11:31N 51°15' E 004°23'0 0.0
2016-Apr-25 10:31N 51°15' E 004°23'0 0.0
2016-Apr-25 09:31N 51°15' E 004°23'0 0.0
2016-Apr-25 08:26N 51°15' E 004°23'0 0.0
2016-Apr-25 07:29N 51°15' E 004°23'0 0.0
2016-Apr-25 06:32N 51°15' E 004°23'0 0.0
2016-Apr-25 05:30N 51°15' E 004°23'0 0.0
2016-Apr-25 04:28N 51°15' E 004°23'0 0.0
2016-Apr-25 03:27N 51°15' E 004°23'0 0.0
2016-Apr-25 02:32N 51°15' E 004°23'0 0.0
2016-Apr-25 01:27N 51°15' E 004°23'0 0.0
2016-Apr-25 00:26N 51°15' E 004°23'0 0.0
2016-Apr-24 23:30N 51°15' E 004°23'0 0.0
2016-Apr-24 22:29N 51°15' E 004°23'0 0.0
2016-Apr-24 21:26N 51°15' E 004°23'0 0.0
2016-Apr-24 20:30N 51°15' E 004°23'0 0.0
2016-Apr-24 19:27N 51°15' E 004°23'0 0.0
2016-Apr-24 18:32N 51°15' E 004°23'0 0.0
2016-Apr-24 17:33N 51°15' E 004°23'0 0.0
2016-Apr-24 16:29N 51°15' E 004°23'0 0.0
2016-Apr-24 15:27N 51°15' E 004°23'0 0.0
2016-Apr-24 14:32N 51°15' E 004°23'0 0.0
2016-Apr-24 13:28N 51°15' E 004°23'0 0.0
2016-Apr-24 12:29N 51°15' E 004°23'0 0.0
2016-Apr-24 11:26N 51°15' E 004°23'0 0.0
2016-Apr-24 10:30N 51°15' E 004°23'0 0.0
2016-Apr-24 09:33N 51°15' E 004°23'0 0.0
2016-Apr-24 08:31N 51°15' E 004°23'0 0.0
2016-Apr-24 07:31N 51°15' E 004°23'0 0.0
2016-Apr-24 06:33N 51°15' E 004°23'0 0.0
2016-Apr-24 05:26N 51°15' E 004°23'0 0.0
2016-Apr-24 04:31N 51°15' E 004°23'0 0.0
2016-Apr-24 03:28N 51°15' E 004°23'0 0.0
2016-Apr-24 02:30N 51°15' E 004°23'0 0.0
2016-Apr-24 01:27N 51°15' E 004°23'0 0.0
2016-Apr-24 00:31N 51°15' E 004°23'0 0.0
2016-Apr-23 23:33N 51°15' E 004°23'0 0.0
2016-Apr-23 22:31N 51°15' E 004°23'0 0.0
2016-Apr-23 21:28N 51°15' E 004°23'0 0.0
2016-Apr-23 20:30N 51°15' E 004°23'0 0.0
2016-Apr-23 19:26N 51°15' E 004°23'0 0.0
2016-Apr-23 18:32N 51°15' E 004°23'0 0.0
2016-Apr-23 17:30N 51°15' E 004°23'0 0.0
2016-Apr-23 16:31N 51°15' E 004°23'0 0.0
2016-Apr-23 15:27N 51°15' E 004°23'0 0.0
2016-Apr-23 14:32N 51°15' E 004°23'0 0.1
2016-Apr-23 13:33N 51°15' E 004°23'6 6.5
2016-Apr-23 12:33N 51°20' E 004°18'0 0.4
2016-Apr-23 11:33N 51°21' E 004°17'5 4.9
2016-Apr-23 10:33N 51°24' E 004°11'7 6.8
2016-Apr-23 09:33N 51°26' E 004°01'7 7.0
2016-Apr-23 08:33N 51°21' E 003°53'7 6.9
2016-Apr-23 07:33N 51°23' E 003°42'7 7.0
2016-Apr-23 06:33N 51°27' E 003°33'8 7.9
2016-Apr-23 05:33N 51°33' E 003°25'8 8.3
2016-Apr-23 04:33N 51°40' E 003°18'25 5.9
2016-Apr-23 00:24N 52°03' E 003°35'7 8.6
2016-Apr-22 23:33N 52°03' E 003°47'9 9.2
2016-Apr-22 22:33N 52°00' E 004°01'1110.7
2016-Apr-22 21:33N 51°54' E 004°16'4 3.4
2016-Apr-22 20:31N 51°54' E 004°21'0 0.0
2016-Apr-22 19:27N 51°54' E 004°21'0 0.0
2016-Apr-22 18:29N 51°54' E 004°21'0 0.0
2016-Apr-22 17:26N 51°54' E 004°21'0 0.0
2016-Apr-22 16:31N 51°54' E 004°21'0 0.0
2016-Apr-22 15:19N 51°54' E 004°21'0 0.0
2016-Apr-22 14:32N 51°54' E 004°21'0 0.0
2016-Apr-22 13:26N 51°54' E 004°21'0 0.0
2016-Apr-22 12:32N 51°54' E 004°21'0 0.0
2016-Apr-22 11:30N 51°54' E 004°21'0 0.0
2016-Apr-22 10:32N 51°54' E 004°21'0 0.0
2016-Apr-22 09:29N 51°54' E 004°21'0 0.0
2016-Apr-22 08:27N 51°54' E 004°21'0 0.0
2016-Apr-22 07:25N 51°54' E 004°21'0 0.0
2016-Apr-22 06:26N 51°54' E 004°21'0 0.0
2016-Apr-22 05:30N 51°54' E 004°21'0 0.0
2016-Apr-22 04:33N 51°54' E 004°21'0 0.0
2016-Apr-22 03:17N 51°54' E 004°21'0 0.0
2016-Apr-22 02:31N 51°54' E 004°21'0 0.0
2016-Apr-22 01:27N 51°54' E 004°21'0 0.0
2016-Apr-22 00:28N 51°54' E 004°21'0 0.0
2016-Apr-21 23:32N 51°54' E 004°21'0 0.0
2016-Apr-21 22:28N 51°54' E 004°21'0 0.0
2016-Apr-21 21:27N 51°54' E 004°21'0 0.0
2016-Apr-21 20:31N 51°54' E 004°21'0 0.0
2016-Apr-21 19:32N 51°54' E 004°21'3 3.1
2016-Apr-21 18:33N 51°54' E 004°16'5 5.1
2016-Apr-21 17:34N 51°57' E 004°10'6 6.3
2016-Apr-21 16:34N 51°60' E 004°00'8 8.2
2016-Apr-21 15:33N 52°01' E 003°47'8 7.7
2016-Apr-21 14:33N 52°05' E 003°37'33 7.9
2016-Apr-21 10:21N 52°25' E 002°53'38 8.9
2016-Apr-21 06:06N 52°50' E 002°06'5 9.3
2016-Apr-21 05:31N 52°53' E 001°58'8 8.7
2016-Apr-21 04:33N 52°58' E 001°47'8 7.8
2016-Apr-21 03:33N 53°03' E 001°37'7 6.9
2016-Apr-21 02:34N 53°07' E 001°28'6 6.3
2016-Apr-21 01:33N 53°11' E 001°19'6 6.2
2016-Apr-21 00:33N 53°15' E 001°11'6 6.3
2016-Apr-20 23:33N 53°18' E 001°03'6 6.2
2016-Apr-20 22:33N 53°21' E 000°54'7 7.0
2016-Apr-20 21:33N 53°20' E 000°42'10 9.8
2016-Apr-20 20:33N 53°11' E 000°38'9 9.5
2016-Apr-20 19:34N 53°04' E 000°28'9 8.8
2016-Apr-20 18:33N 52°55' E 000°22'8 7.8
2016-Apr-20 17:34N 52°48' E 000°22'2 2.4
2016-Apr-20 16:33N 52°46' E 000°24'0 0.0
2016-Apr-20 15:32N 52°46' E 000°24'0 0.0
2016-Apr-20 14:32N 52°46' E 000°24'0 0.0
2016-Apr-20 13:29N 52°46' E 000°24'0 0.0
2016-Apr-20 12:30N 52°46' E 000°24'0 0.0
2016-Apr-20 11:33N 52°46' E 000°24'0 0.0
2016-Apr-20 10:33N 52°46' E 000°24'0 0.0
2016-Apr-20 09:33N 52°46' E 000°24'0 0.0
2016-Apr-20 08:33N 52°46' E 000°24'0 0.0
2016-Apr-20 07:32N 52°46' E 000°24'0 0.0
2016-Apr-20 06:23N 52°46' E 000°24'0 0.0
2016-Apr-20 05:32N 52°46' E 000°24'0 0.0
2016-Apr-20 04:32N 52°46' E 000°24'0 0.1
2016-Apr-20 03:32N 52°46' E 000°24'0 0.0
2016-Apr-20 02:32N 52°46' E 000°24'0 0.0
2016-Apr-20 01:32N 52°46' E 000°24'0 0.0
2016-Apr-20 00:32N 52°46' E 000°24'0 0.0
2016-Apr-19 23:31N 52°46' E 000°24'0 0.0
2016-Apr-19 22:23N 52°46' E 000°24'0 0.0
2016-Apr-19 21:33N 52°46' E 000°24'0 0.0
2016-Apr-19 20:32N 52°46' E 000°24'0 0.0
2016-Apr-19 19:32N 52°46' E 000°24'0 0.0
2016-Apr-19 18:28N 52°46' E 000°24'0 0.0
2016-Apr-19 17:31N 52°46' E 000°24'0 0.0
2016-Apr-19 16:28N 52°46' E 000°24'0 0.0
2016-Apr-19 15:31N 52°46' E 000°24'0 0.0
2016-Apr-19 14:22N 52°46' E 000°24'0 0.0
2016-Apr-19 13:31N 52°46' E 000°24'0 0.0
2016-Apr-19 12:25N 52°46' E 000°24'0 0.0
2016-Apr-19 11:31N 52°46' E 000°24'0 0.0
2016-Apr-19 10:32N 52°46' E 000°24'0 0.0
2016-Apr-19 09:32N 52°46' E 000°24'0 0.0
2016-Apr-19 08:32N 52°46' E 000°24'0 0.0
2016-Apr-19 07:33N 52°46' E 000°24'0 0.0
2016-Apr-19 06:33N 52°46' E 000°24'0 0.0
2016-Apr-19 05:33N 52°46' E 000°24'0 0.0
2016-Apr-19 04:31N 52°46' E 000°24'0 0.0
2016-Apr-19 03:25N 52°46' E 000°24'0 0.0
2016-Apr-19 02:28N 52°46' E 000°24'0 0.0
2016-Apr-19 01:31N 52°46' E 000°24'0 0.0
2016-Apr-19 00:31N 52°46' E 000°24'0 0.0
2016-Apr-18 23:31N 52°46' E 000°24'0 0.0
2016-Apr-18 22:28N 52°46' E 000°24'0 0.0
2016-Apr-18 21:31N 52°46' E 000°24'0 0.0
2016-Apr-18 20:28N 52°46' E 000°24'0 0.0
2016-Apr-18 19:33N 52°46' E 000°24'0 0.0
2016-Apr-18 18:31N 52°46' E 000°24'0 0.0
2016-Apr-18 17:31N 52°46' E 000°24'0 0.0
2016-Apr-18 16:31N 52°46' E 000°24'0 0.1
2016-Apr-18 15:31N 52°46' E 000°24'0 0.0
2016-Apr-18 14:31N 52°46' E 000°24'0 0.0
2016-Apr-18 13:29N 52°46' E 000°24'0 0.0
2016-Apr-18 12:32N 52°46' E 000°24'0 0.0
2016-Apr-18 11:30N 52°46' E 000°24'0 0.0
2016-Apr-18 10:33N 52°46' E 000°24'0 0.0
2016-Apr-18 09:33N 52°46' E 000°24'0 0.0
2016-Apr-18 08:33N 52°46' E 000°24'0 0.0
2016-Apr-18 07:33N 52°46' E 000°24'0 0.0
2016-Apr-18 06:33N 52°46' E 000°24'0 0.0
2016-Apr-18 05:33N 52°46' E 000°24'0 0.0
2016-Apr-18 04:33N 52°46' E 000°24'0 0.3
2016-Apr-18 03:33N 52°45' E 000°23'7 6.8
2016-Apr-18 02:33N 52°52' E 000°22'5 4.4
2016-Apr-18 01:31N 52°57' E 000°21'0 0.0
2016-Apr-18 00:33N 52°57' E 000°21'0 0.0
2016-Apr-17 23:31N 52°57' E 000°22'0 0.0
2016-Apr-17 22:33N 52°57' E 000°22'0 0.0
2016-Apr-17 21:33N 52°57' E 000°22'0 0.0
2016-Apr-17 20:33N 52°57' E 000°22'0 0.4
2016-Apr-17 19:33N 52°57' E 000°22'6 6.2
2016-Apr-17 18:34N 53°03' E 000°27'8 7.5
2016-Apr-17 17:33N 53°09' E 000°35'12 8.3
2016-Apr-17 16:07N 53°19' E 000°43'5 7.7
2016-Apr-17 15:29N 53°21' E 000°51'7 7.2
2016-Apr-17 14:33N 53°19' E 001°02'10 7.3
2016-Apr-17 13:14N 53°13' E 001°14'6 8.2
2016-Apr-17 12:33N 53°10' E 001°22'9 9.1
2016-Apr-17 11:33N 53°04' E 001°34'9 9.3
2016-Apr-17 10:34N 52°59' E 001°46'17 7.9
2016-Apr-17 08:28N 52°47' E 002°05'7 7.6
2016-Apr-17 07:33N 52°40' E 002°02'7 6.8
2016-Apr-17 06:33N 52°33' E 002°01'7 6.5
2016-Apr-17 05:32N 52°26' E 001°58'7 6.3
2016-Apr-17 04:29N 52°20' E 001°56'6 6.7
2016-Apr-17 03:33N 52°14' E 001°54'  
Track history (hours):
 
Tides and Currents Weather Stations Pressure Air Temp Water Temp Dewpoint Dewpoint Depression Visibility Wind Speed Wind Dir Waves Ship Positions

Marcel

Last reported at 2016-Apr-27 03:08 UTC. Time now 2016-Apr-29 19:51 UTC.
Position N 49°57' W 002°56'.

Length 88 m; draft 4.8 m.

Type: Cargo ship. MMSI: 205439000.

Date/timePositionNaut miles runAvg speedWind from/ knotsBaromVisibWave heightAir tempDewpointWater temp
2016-Apr-27 03:08N 49°57' W 002°56'106 8.4
2016-Apr-26 14:33N 50°27' W 000°18'9 9.3
2016-Apr-26 13:34N 50°30' W 000°04'9 8.2
2016-Apr-26 12:31N 50°32' E 000°09'48 8.7
2016-Apr-26 07:04N 50°57' E 001°13'510.4
2016-Apr-26 06:33N 51°01' E 001°20'9 9.4
2016-Apr-26 05:33N 51°07' E 001°31'7 7.5
2016-Apr-26 04:34N 51°11' E 001°40'7 6.6
2016-Apr-26 03:33N 51°16' E 001°48'6 6.3
2016-Apr-26 02:34N 51°21' E 001°54'6 6.0
2016-Apr-26 01:34N 51°25' E 002°02'9 7.2
2016-Apr-26 00:16N 51°21' E 002°16'6 8.0
2016-Apr-25 23:33N 51°22' E 002°25'9 8.7
2016-Apr-25 22:29N 51°23' E 002°39'7 6.9
2016-Apr-25 21:32N 51°22' E 002°50'9 9.2
2016-Apr-25 20:33N 51°25' E 003°04'10 9.5
2016-Apr-25 19:33N 51°24' E 003°19'1111.0
2016-Apr-25 18:34N 51°26' E 003°36'1110.6
2016-Apr-25 17:33N 51°22' E 003°52'7 7.1
2016-Apr-25 16:33N 51°25' E 004°02'7 7.3
2016-Apr-25 15:33N 51°22' E 004°13'3 2.9
2016-Apr-25 14:33N 51°21' E 004°17'1 1.0
2016-Apr-25 13:34N 51°20' E 004°18'6 5.9
2016-Apr-25 12:33N 51°15' E 004°23'0 0.0
2016-Apr-25 11:31N 51°15' E 004°23'0 0.0
2016-Apr-25 10:31N 51°15' E 004°23'0 0.0
2016-Apr-25 09:31N 51°15' E 004°23'0 0.0
2016-Apr-25 08:26N 51°15' E 004°23'0 0.0
2016-Apr-25 07:29N 51°15' E 004°23'0 0.0
2016-Apr-25 06:32N 51°15' E 004°23'0 0.0
2016-Apr-25 05:30N 51°15' E 004°23'0 0.0
2016-Apr-25 04:28N 51°15' E 004°23'0 0.0
2016-Apr-25 03:27N 51°15' E 004°23'0 0.0
2016-Apr-25 02:32N 51°15' E 004°23'0 0.0
2016-Apr-25 01:27N 51°15' E 004°23'0 0.0
2016-Apr-25 00:26N 51°15' E 004°23'0 0.0
2016-Apr-24 23:30N 51°15' E 004°23'0 0.0
2016-Apr-24 22:29N 51°15' E 004°23'0 0.0
2016-Apr-24 21:26N 51°15' E 004°23'0 0.0
2016-Apr-24 20:30N 51°15' E 004°23'0 0.0
2016-Apr-24 19:27N 51°15' E 004°23'0 0.0
2016-Apr-24 18:32N 51°15' E 004°23'0 0.0
2016-Apr-24 17:33N 51°15' E 004°23'0 0.0
2016-Apr-24 16:29N 51°15' E 004°23'0 0.0
2016-Apr-24 15:27N 51°15' E 004°23'0 0.0
2016-Apr-24 14:32N 51°15' E 004°23'0 0.0
2016-Apr-24 13:28N 51°15' E 004°23'0 0.0
2016-Apr-24 12:29N 51°15' E 004°23'0 0.0
2016-Apr-24 11:26N 51°15' E 004°23'0 0.0
2016-Apr-24 10:30N 51°15' E 004°23'0 0.0
2016-Apr-24 09:33N 51°15' E 004°23'0 0.0
2016-Apr-24 08:31N 51°15' E 004°23'0 0.0
2016-Apr-24 07:31N 51°15' E 004°23'0 0.0
2016-Apr-24 06:33N 51°15' E 004°23'0 0.0
2016-Apr-24 05:26N 51°15' E 004°23'0 0.0
2016-Apr-24 04:31N 51°15' E 004°23'0 0.0
2016-Apr-24 03:28N 51°15' E 004°23'0 0.0
2016-Apr-24 02:30N 51°15' E 004°23'0 0.0
2016-Apr-24 01:27N 51°15' E 004°23'0 0.0
2016-Apr-24 00:31N 51°15' E 004°23'0 0.0
2016-Apr-23 23:33N 51°15' E 004°23'0 0.0
2016-Apr-23 22:31N 51°15' E 004°23'0 0.0
2016-Apr-23 21:28N 51°15' E 004°23'0 0.0
2016-Apr-23 20:30N 51°15' E 004°23'0 0.0
2016-Apr-23 19:26N 51°15' E 004°23'0 0.0
2016-Apr-23 18:32N 51°15' E 004°23'0 0.0
2016-Apr-23 17:30N 51°15' E 004°23'0 0.0
2016-Apr-23 16:31N 51°15' E 004°23'0 0.0
2016-Apr-23 15:27N 51°15' E 004°23'0 0.0
2016-Apr-23 14:32N 51°15' E 004°23'0 0.1
2016-Apr-23 13:33N 51°15' E 004°23'6 6.5
2016-Apr-23 12:33N 51°20' E 004°18'0 0.4
2016-Apr-23 11:33N 51°21' E 004°17'5 4.9
2016-Apr-23 10:33N 51°24' E 004°11'7 6.8
2016-Apr-23 09:33N 51°26' E 004°01'7 7.0
2016-Apr-23 08:33N 51°21' E 003°53'7 6.9
2016-Apr-23 07:33N 51°23' E 003°42'7 7.0
2016-Apr-23 06:33N 51°27' E 003°33'8 7.9
2016-Apr-23 05:33N 51°33' E 003°25'8 8.3
2016-Apr-23 04:33N 51°40' E 003°18'25 5.9
2016-Apr-23 00:24N 52°03' E 003°35'7 8.6
2016-Apr-22 23:33N 52°03' E 003°47'9 9.2
2016-Apr-22 22:33N 52°00' E 004°01'1110.7
2016-Apr-22 21:33N 51°54' E 004°16'4 3.4
2016-Apr-22 20:31N 51°54' E 004°21'0 0.0
2016-Apr-22 19:27N 51°54' E 004°21'0 0.0
2016-Apr-22 18:29N 51°54' E 004°21'0 0.0
2016-Apr-22 17:26N 51°54' E 004°21'0 0.0
2016-Apr-22 16:31N 51°54' E 004°21'0 0.0
2016-Apr-22 15:19N 51°54' E 004°21'0 0.0
2016-Apr-22 14:32N 51°54' E 004°21'0 0.0
2016-Apr-22 13:26N 51°54' E 004°21'0 0.0
2016-Apr-22 12:32N 51°54' E 004°21'0 0.0
2016-Apr-22 11:30N 51°54' E 004°21'0 0.0
2016-Apr-22 10:32N 51°54' E 004°21'0 0.0
2016-Apr-22 09:29N 51°54' E 004°21'0 0.0
2016-Apr-22 08:27N 51°54' E 004°21'0 0.0
2016-Apr-22 07:25N 51°54' E 004°21'0 0.0
2016-Apr-22 06:26N 51°54' E 004°21'0 0.0
2016-Apr-22 05:30N 51°54' E 004°21'0 0.0
2016-Apr-22 04:33N 51°54' E 004°21'0 0.0
2016-Apr-22 03:17N 51°54' E 004°21'0 0.0
2016-Apr-22 02:31N 51°54' E 004°21'0 0.0
2016-Apr-22 01:27N 51°54' E 004°21'0 0.0
2016-Apr-22 00:28N 51°54' E 004°21'0 0.0
2016-Apr-21 23:32N 51°54' E 004°21'0 0.0
2016-Apr-21 22:28N 51°54' E 004°21'0 0.0
2016-Apr-21 21:27N 51°54' E 004°21'0 0.0
2016-Apr-21 20:31N 51°54' E 004°21'0 0.0
2016-Apr-21 19:32N 51°54' E 004°21'3 3.1
2016-Apr-21 18:33N 51°54' E 004°16'5 5.1
2016-Apr-21 17:34N 51°57' E 004°10'6 6.3
2016-Apr-21 16:34N 51°60' E 004°00'8 8.2
2016-Apr-21 15:33N 52°01' E 003°47'8 7.7
2016-Apr-21 14:33N 52°05' E 003°37'33 7.9
2016-Apr-21 10:21N 52°25' E 002°53'38 8.9
2016-Apr-21 06:06N 52°50' E 002°06'5 9.3
2016-Apr-21 05:31N 52°53' E 001°58'8 8.7
2016-Apr-21 04:33N 52°58' E 001°47'8 7.8
2016-Apr-21 03:33N 53°03' E 001°37'7 6.9
2016-Apr-21 02:34N 53°07' E 001°28'6 6.3
2016-Apr-21 01:33N 53°11' E 001°19'6 6.2
2016-Apr-21 00:33N 53°15' E 001°11'6 6.3
2016-Apr-20 23:33N 53°18' E 001°03'6 6.2
2016-Apr-20 22:33N 53°21' E 000°54'7 7.0
2016-Apr-20 21:33N 53°20' E 000°42'10 9.8
2016-Apr-20 20:33N 53°11' E 000°38'9 9.5
2016-Apr-20 19:34N 53°04' E 000°28'9 8.8
2016-Apr-20 18:33N 52°55' E 000°22'8 7.8
2016-Apr-20 17:34N 52°48' E 000°22'2 2.4
2016-Apr-20 16:33N 52°46' E 000°24'0 0.0
2016-Apr-20 15:32N 52°46' E 000°24'0 0.0
2016-Apr-20 14:32N 52°46' E 000°24'0 0.0
2016-Apr-20 13:29N 52°46' E 000°24'0 0.0
2016-Apr-20 12:30N 52°46' E 000°24'0 0.0
2016-Apr-20 11:33N 52°46' E 000°24'0 0.0
2016-Apr-20 10:33N 52°46' E 000°24'0 0.0
2016-Apr-20 09:33N 52°46' E 000°24'0 0.0
2016-Apr-20 08:33N 52°46' E 000°24'0 0.0
2016-Apr-20 07:32N 52°46' E 000°24'0 0.0
2016-Apr-20 06:23N 52°46' E 000°24'0 0.0
2016-Apr-20 05:32N 52°46' E 000°24'0 0.0
2016-Apr-20 04:32N 52°46' E 000°24'0 0.1
2016-Apr-20 03:32N 52°46' E 000°24'0 0.0
2016-Apr-20 02:32N 52°46' E 000°24'0 0.0
2016-Apr-20 01:32N 52°46' E 000°24'0 0.0
2016-Apr-20 00:32N 52°46' E 000°24'0 0.0
2016-Apr-19 23:31N 52°46' E 000°24'0 0.0
2016-Apr-19 22:23N 52°46' E 000°24'0 0.0
2016-Apr-19 21:33N 52°46' E 000°24'0 0.0
2016-Apr-19 20:32N 52°46' E 000°24'0 0.0
2016-Apr-19 19:32N 52°46' E 000°24'0 0.0
2016-Apr-19 18:28N 52°46' E 000°24'0 0.0
2016-Apr-19 17:31N 52°46' E 000°24'0 0.0
2016-Apr-19 16:28N 52°46' E 000°24'0 0.0
2016-Apr-19 15:31N 52°46' E 000°24'0 0.0
2016-Apr-19 14:22N 52°46' E 000°24'0 0.0
2016-Apr-19 13:31N 52°46' E 000°24'0 0.0
2016-Apr-19 12:25N 52°46' E 000°24'0 0.0
2016-Apr-19 11:31N 52°46' E 000°24'0 0.0
2016-Apr-19 10:32N 52°46' E 000°24'0 0.0
2016-Apr-19 09:32N 52°46' E 000°24'0 0.0
2016-Apr-19 08:32N 52°46' E 000°24'0 0.0
2016-Apr-19 07:33N 52°46' E 000°24'0 0.0
2016-Apr-19 06:33N 52°46' E 000°24'0 0.0
2016-Apr-19 05:33N 52°46' E 000°24'0 0.0
2016-Apr-19 04:31N 52°46' E 000°24'0 0.0
2016-Apr-19 03:25N 52°46' E 000°24'0 0.0
2016-Apr-19 02:28N 52°46' E 000°24'0 0.0
2016-Apr-19 01:31N 52°46' E 000°24'0 0.0
2016-Apr-19 00:31N 52°46' E 000°24'0 0.0
2016-Apr-18 23:31N 52°46' E 000°24'0 0.0
2016-Apr-18 22:28N 52°46' E 000°24'0 0.0
2016-Apr-18 21:31N 52°46' E 000°24'0 0.0
2016-Apr-18 20:28N 52°46' E 000°24'0 0.0
2016-Apr-18 19:33N 52°46' E 000°24'0 0.0
2016-Apr-18 18:31N 52°46' E 000°24'0 0.0
2016-Apr-18 17:31N 52°46' E 000°24'0 0.0
2016-Apr-18 16:31N 52°46' E 000°24'0 0.1
2016-Apr-18 15:31N 52°46' E 000°24'0 0.0
2016-Apr-18 14:31N 52°46' E 000°24'0 0.0
2016-Apr-18 13:29N 52°46' E 000°24'0 0.0
2016-Apr-18 12:32N 52°46' E 000°24'0 0.0
2016-Apr-18 11:30N 52°46' E 000°24'0 0.0
2016-Apr-18 10:33N 52°46' E 000°24'0 0.0
2016-Apr-18 09:33N 52°46' E 000°24'0 0.0
2016-Apr-18 08:33N 52°46' E 000°24'0 0.0
2016-Apr-18 07:33N 52°46' E 000°24'0 0.0
2016-Apr-18 06:33N 52°46' E 000°24'0 0.0
2016-Apr-18 05:33N 52°46' E 000°24'0 0.0
2016-Apr-18 04:33N 52°46' E 000°24'0 0.3
2016-Apr-18 03:33N 52°45' E 000°23'7 6.8
2016-Apr-18 02:33N 52°52' E 000°22'5 4.4
2016-Apr-18 01:31N 52°57' E 000°21'0 0.0
2016-Apr-18 00:33N 52°57' E 000°21'0 0.0
2016-Apr-17 23:31N 52°57' E 000°22'0 0.0
2016-Apr-17 22:33N 52°57' E 000°22'0 0.0
2016-Apr-17 21:33N 52°57' E 000°22'0 0.0
2016-Apr-17 20:33N 52°57' E 000°22'0 0.4
2016-Apr-17 19:33N 52°57' E 000°22'6 6.2
2016-Apr-17 18:34N 53°03' E 000°27'8 7.5
2016-Apr-17 17:33N 53°09' E 000°35'12 8.3
2016-Apr-17 16:07N 53°19' E 000°43'5 7.7
2016-Apr-17 15:29N 53°21' E 000°51'7 7.2
2016-Apr-17 14:33N 53°19' E 001°02'10 7.3
2016-Apr-17 13:14N 53°13' E 001°14'6 8.2
2016-Apr-17 12:33N 53°10' E 001°22'9 9.1
2016-Apr-17 11:33N 53°04' E 001°34'9 9.3
2016-Apr-17 10:34N 52°59' E 001°46'17 7.9
2016-Apr-17 08:28N 52°47' E 002°05'7 7.6
2016-Apr-17 07:33N 52°40' E 002°02'7 6.8
2016-Apr-17 06:33N 52°33' E 002°01'7 6.5
2016-Apr-17 05:32N 52°26' E 001°58'7 6.3
2016-Apr-17 04:29N 52°20' E 001°56'6 6.7
2016-Apr-17 03:33N 52°14' E 001°54'  

Dump ship's entire track history